createdAt,value
2022-08-25T00:02:36.566Z,101660.31
2022-08-25T00:07:39.267Z,101653.63
2022-08-25T00:12:42.539Z,101651.31
2022-08-25T00:17:44.670Z,101642.59
2022-08-25T00:22:46.615Z,101650.72
2022-08-25T00:27:50.904Z,101638.13
2022-08-25T00:32:57.226Z,101639.13
2022-08-25T00:37:59.736Z,101640.13
2022-08-25T00:43:04.149Z,101644.28
2022-08-25T00:48:06.856Z,101628.53
2022-08-25T00:53:08.999Z,101638.00
2022-08-25T00:58:18.337Z,101637.13
2022-08-25T01:03:21.482Z,101634.78
2022-08-25T01:08:29.123Z,101641.47
2022-08-25T01:13:38.128Z,101641.00
2022-08-25T01:18:47.543Z,101646.47
2022-08-25T01:23:52.150Z,101645.13
2022-08-25T01:28:54.684Z,101646.16
2022-08-25T01:33:57.972Z,101644.84
2022-08-25T01:39:01.061Z,101649.69
2022-08-25T01:44:05.858Z,101643.44
2022-08-25T01:49:11.091Z,101638.84
2022-08-25T01:54:14.391Z,101630.03
2022-08-25T01:59:24.126Z,101633.66
2022-08-25T02:04:26.536Z,101630.19
2022-08-25T02:09:29.971Z,101614.97
2022-08-25T02:14:32.477Z,101626.72
2022-08-25T02:19:34.528Z,101624.84
2022-08-25T02:24:37.799Z,101621.41
2022-08-25T02:29:39.918Z,101607.81
2022-08-25T02:34:42.121Z,101612.53
2022-08-25T02:39:45.681Z,101608.63
2022-08-25T02:44:47.421Z,101599.53
2022-08-25T02:49:49.686Z,101604.31
2022-08-25T02:54:52.967Z,101599.16
2022-08-25T02:59:54.864Z,101597.69
2022-08-25T03:04:56.998Z,101597.75
2022-08-25T03:10:00.558Z,101588.94
2022-08-25T03:15:02.858Z,101595.38
2022-08-25T03:20:06.665Z,101585.41
2022-08-25T03:25:10.866Z,101589.28
2022-08-25T03:30:13.379Z,101580.44
2022-08-25T03:35:15.703Z,101562.78
2022-08-25T03:40:19.345Z,101566.97
2022-08-25T03:45:21.548Z,101574.19
2022-08-25T03:50:24.226Z,101570.75
2022-08-25T03:55:28.603Z,101575.84
2022-08-25T04:00:33.011Z,101573.44
2022-08-25T04:05:34.719Z,101563.53
2022-08-25T04:10:38.306Z,101573.31
2022-08-25T04:15:42.481Z,101574.06
2022-08-25T04:20:46.683Z,101576.41
2022-08-25T04:25:50.041Z,101584.25
2022-08-25T04:30:52.219Z,101590.38
2022-08-25T04:35:54.383Z,101589.69
2022-08-25T04:40:59.110Z,101591.69
2022-08-25T04:46:05.771Z,101594.44
2022-08-25T04:51:10.099Z,101592.59
2022-08-25T04:56:15.838Z,101595.22
2022-08-25T05:01:22.101Z,101602.28
2022-08-25T05:06:24.736Z,101600.91
2022-08-25T05:11:28.255Z,101594.06
2022-08-25T05:16:30.759Z,101590.28
2022-08-25T05:21:32.931Z,101595.97
2022-08-25T05:26:38.530Z,101599.34
2022-08-25T05:31:44.875Z,101587.09
2022-08-25T05:36:49.631Z,101589.31
2022-08-25T05:41:52.760Z,101598.38
2022-08-25T05:46:54.503Z,101600.44
2022-08-25T05:51:56.363Z,101608.75
2022-08-25T05:56:59.561Z,101607.25
2022-08-25T06:02:01.683Z,101617.47
2022-08-25T06:07:03.413Z,101616.81
2022-08-25T06:12:07.646Z,101607.19
2022-08-25T06:17:10.648Z,101609.09
2022-08-25T06:22:12.490Z,101612.03
2022-08-25T06:27:15.582Z,101598.78
2022-08-25T06:32:17.720Z,101602.84
2022-08-25T06:37:24.615Z,101608.09
2022-08-25T06:42:28.593Z,101619.38
2022-08-25T06:47:30.710Z,101611.75
2022-08-25T06:52:33.226Z,101615.94
2022-08-25T06:57:36.368Z,101617.69
2022-08-25T07:02:38.581Z,101619.31
2022-08-25T07:07:43.640Z,101612.47
2022-08-25T07:12:47.951Z,101622.19
2022-08-25T07:17:50.333Z,101609.00
2022-08-25T07:22:52.440Z,101605.94
2022-08-25T07:27:58.857Z,101605.47
2022-08-25T07:33:05.864Z,101598.88
2022-08-25T07:38:09.062Z,101610.44
2022-08-25T07:43:13.888Z,101612.41
2022-08-25T07:48:17.768Z,101602.16
2022-08-25T07:53:20.513Z,101608.19
2022-08-25T07:58:26.160Z,101608.16
2022-08-25T08:03:45.053Z,101612.16
2022-08-25T08:08:48.796Z,101610.19
2022-08-25T08:13:53.267Z,101602.38
2022-08-25T08:18:56.145Z,101595.53
2022-08-25T08:23:59.361Z,101594.56
2022-08-25T08:29:02.807Z,101593.81
2022-08-25T08:34:04.860Z,101591.13
2022-08-25T08:39:07.066Z,101586.50
2022-08-25T08:44:19.345Z,101589.34
2022-08-25T08:49:28.524Z,101584.56
2022-08-25T08:54:34.726Z,101589.63
2022-08-25T08:59:49.575Z,101579.47
2022-08-25T09:04:56.207Z,101569.53
2022-08-25T09:09:58.257Z,101567.00
2022-08-25T09:15:13.857Z,101567.94
2022-08-25T09:20:34.459Z,101563.72
2022-08-25T09:25:52.407Z,101563.28
2022-08-25T09:31:01.132Z,101562.91
2022-08-25T09:36:04.598Z,101558.47
2022-08-25T09:41:08.889Z,101543.19
2022-08-25T09:46:14.642Z,101554.81
2022-08-25T09:51:20.305Z,101534.94
2022-08-25T09:56:24.558Z,101539.69
2022-08-25T10:01:29.289Z,101537.94
2022-08-25T10:06:44.951Z,101533.06
2022-08-25T10:11:48.037Z,101516.97
2022-08-25T10:16:51.480Z,101512.94
2022-08-25T10:22:05.816Z,101516.09
2022-08-25T10:27:18.716Z,101506.97
2022-08-25T10:32:33.414Z,101506.84
2022-08-25T10:37:44.073Z,101491.28
2022-08-25T10:42:56.617Z,101482.94
2022-08-25T10:48:51.788Z,101486.75
2022-08-25T10:54:02.242Z,101468.19
2022-08-25T10:59:16.691Z,101467.94
2022-08-25T11:04:25.283Z,101468.69
2022-08-25T11:09:33.377Z,101468.03
2022-08-25T11:14:42.814Z,101450.97
2022-08-25T11:19:47.373Z,101448.91
2022-08-25T11:25:02.048Z,101451.00
2022-08-25T11:30:08.943Z,101451.59
2022-08-25T11:35:13.890Z,101441.19
2022-08-25T11:40:50.299Z,101433.66
2022-08-25T11:46:06.293Z,101436.72
2022-08-25T11:51:10.757Z,101430.94
2022-08-25T11:56:34.682Z,101426.56
2022-08-25T12:02:28.116Z,101419.31
2022-08-25T12:07:51.008Z,101415.09
2022-08-25T12:13:02.272Z,101409.25
2022-08-25T12:18:12.932Z,101396.16
2022-08-25T12:23:16.246Z,101394.22
2022-08-25T12:28:37.541Z,101386.53
2022-08-25T12:33:50.174Z,101380.25
2022-08-25T12:38:52.558Z,101384.78
2022-08-25T12:44:17.412Z,101367.22
2022-08-25T12:49:32.451Z,101369.25
2022-08-25T12:54:47.615Z,101374.44
2022-08-25T12:59:54.921Z,101367.66
2022-08-25T13:05:14.505Z,101364.94
2022-08-25T13:10:32.744Z,101350.59
2022-08-25T13:15:41.053Z,101335.50
2022-08-25T13:20:44.063Z,101334.13
2022-08-25T13:25:49.466Z,101337.50
2022-08-25T13:31:05.525Z,101327.56
2022-08-25T13:36:16.788Z,101333.00
2022-08-25T13:41:28.752Z,101323.09
2022-08-25T13:46:35.515Z,101316.41
2022-08-25T13:51:39.499Z,101322.03
2022-08-25T13:56:42.227Z,101317.44
2022-08-25T14:01:50.082Z,101311.88
2022-08-25T14:07:27.241Z,101312.00
2022-08-25T14:12:40.043Z,101293.81
2022-08-25T14:22:51.664Z,101284.84
2022-08-25T14:28:13.500Z,101289.66
2022-08-25T14:33:19.690Z,101269.47
2022-08-25T14:38:23.155Z,101270.72
2022-08-25T14:43:31.745Z,101261.91
2022-08-25T14:48:42.730Z,101259.69
2022-08-25T14:53:44.566Z,101261.09
2022-08-25T14:58:50.820Z,101247.78
2022-08-25T15:03:57.714Z,101242.78
2022-08-25T15:08:59.915Z,101238.28
2022-08-25T15:14:02.357Z,101231.72
2022-08-25T15:19:07.125Z,101230.91
2022-08-25T15:24:11.099Z,101232.09
2022-08-25T15:29:14.081Z,101225.13
2022-08-25T15:34:19.319Z,101218.44
2022-08-25T15:39:21.183Z,101208.88
2022-08-25T15:44:28.597Z,101208.09
2022-08-25T15:49:32.959Z,101196.69
2022-08-25T15:54:34.913Z,101197.94
2022-08-25T15:59:40.976Z,101196.94
2022-08-25T16:04:44.936Z,101196.75
2022-08-25T16:09:47.336Z,101186.09
2022-08-25T16:14:49.124Z,101174.59
2022-08-25T16:19:55.254Z,101171.00
2022-08-25T16:24:57.206Z,101171.16
2022-08-25T16:30:00.242Z,101159.16
2022-08-25T16:35:05.622Z,101165.72
2022-08-25T16:40:13.510Z,101158.22
2022-08-25T16:45:17.146Z,101157.63
2022-08-25T16:50:20.521Z,101156.84
2022-08-25T16:55:23.152Z,101150.94
2022-08-25T17:00:28.231Z,101156.13
2022-08-25T17:05:33.608Z,101151.31
2022-08-25T17:10:38.258Z,101150.31
2022-08-25T17:15:42.726Z,101146.44
2022-08-25T17:20:46.911Z,101152.56
2022-08-25T17:25:49.699Z,101154.84
2022-08-25T17:30:51.413Z,101163.13
2022-08-25T17:35:56.921Z,101167.81
2022-08-25T17:41:01.474Z,101162.09
2022-08-25T17:46:04.761Z,101154.53
2022-08-25T17:51:09.457Z,101145.09
2022-08-25T17:56:14.086Z,101150.78
2022-08-25T18:01:19.007Z,101160.59
2022-08-25T18:06:23.063Z,101161.78
2022-08-25T18:11:25.050Z,101172.72
2022-08-25T18:16:28.000Z,101170.09
2022-08-25T18:21:31.881Z,101171.81
2022-08-25T18:26:34.597Z,101176.03
2022-08-25T18:31:36.668Z,101190.28
2022-08-25T18:36:40.379Z,101185.63
2022-08-25T18:41:44.960Z,101195.94
2022-08-25T18:46:47.841Z,101200.09
2022-08-25T18:51:51.443Z,101192.91
2022-08-25T18:56:54.054Z,101190.75
2022-08-25T19:01:56.779Z,101195.31
2022-08-25T19:07:01.396Z,101203.13
2022-08-25T19:12:04.504Z,101214.09
2022-08-25T19:17:06.961Z,101212.72
2022-08-25T19:22:31.672Z,101205.53
2022-08-25T19:27:33.017Z,101209.91
2022-08-25T19:32:35.448Z,101210.34
2022-08-25T19:37:40.128Z,101204.13
2022-08-25T19:42:42.251Z,101209.63
2022-08-25T19:47:44.000Z,101214.78
2022-08-25T19:52:49.821Z,101214.69
2022-08-25T19:57:52.436Z,101214.56
2022-08-25T20:02:55.542Z,101215.19
2022-08-25T20:07:59.595Z,101220.38
2022-08-25T20:13:01.857Z,101207.56
2022-08-25T20:18:04.621Z,101207.25
2022-08-25T20:23:08.364Z,101208.88
2022-08-25T20:28:12.766Z,101203.22
2022-08-25T20:33:22.947Z,101199.66
2022-08-25T20:38:27.258Z,101194.25
2022-08-25T20:43:28.954Z,101191.94
2022-08-25T20:48:31.045Z,101192.97
2022-08-25T20:53:37.104Z,101184.69
2022-08-25T20:58:39.597Z,101180.34
2022-08-25T21:03:42.927Z,101183.47
2022-08-25T21:08:46.723Z,101176.38
2022-08-25T21:13:48.593Z,101170.16
2022-08-25T21:18:51.235Z,101175.28
2022-08-25T21:23:55.166Z,101168.91
2022-08-25T21:28:58.245Z,101165.91
2022-08-25T21:34:00.937Z,101174.97
2022-08-25T21:39:04.805Z,101165.94
2022-08-25T21:44:07.605Z,101159.75
2022-08-25T21:49:09.647Z,101165.81
2022-08-25T21:54:16.077Z,101163.28
2022-08-25T21:59:20.157Z,101165.03
2022-08-25T22:04:22.741Z,101161.25
2022-08-25T22:09:28.234Z,101157.59
2022-08-25T22:14:30.613Z,101153.94
2022-08-25T22:19:33.582Z,101147.81
2022-08-25T22:24:37.218Z,101147.16
2022-08-25T22:29:39.288Z,101143.66
2022-08-25T22:34:43.638Z,101139.53
2022-08-25T22:39:47.507Z,101139.31
2022-08-25T22:44:50.104Z,101133.75
2022-08-25T22:49:52.467Z,101139.38
2022-08-25T22:54:55.664Z,101136.63
2022-08-25T22:59:57.708Z,101134.66
2022-08-25T23:05:00.796Z,101127.47
2022-08-25T23:10:05.470Z,101118.53
2022-08-25T23:15:09.932Z,101117.56
2022-08-25T23:20:12.017Z,101126.63
2022-08-25T23:25:15.684Z,101121.69
2022-08-25T23:30:18.222Z,101111.31
2022-08-25T23:35:20.217Z,101114.91
2022-08-25T23:40:24.744Z,101105.69
2022-08-25T23:45:27.235Z,101105.31
2022-08-25T23:50:28.982Z,101105.69
2022-08-25T23:55:34.091Z,101099.03
